Time;durP1;ratioP1;P1;durP2;ratioP2;P2;SDS_P1;SDS_P2;PMS_P1;PMS_P2;Temp;Humidity;BMP_temperature;BMP_pressure;BME280_temperature;BME280_humidity;BME280_pressure;Samples;Min_cycle;Max_cycle;Signal;HPM_P1;HPM_P2
2023/11/08 00:00:50;;;;;;;3.28;2.47;;;23.90;99.90;;;;;;5031706;28;20501;-40
2023/11/08 00:03:15;;;;;;;4.50;2.53;;;23.90;99.90;;;;;;5031982;28;20022;-40
2023/11/08 00:05:41;;;;;;;3.25;2.53;;;23.90;99.90;;;;;;5035040;28;20385;-40
2023/11/08 00:08:08;;;;;;;5.47;3.42;;;23.90;99.90;;;;;;5035550;28;20034;-41
2023/11/08 00:10:37;;;;;;;3.63;2.72;;;23.90;99.90;;;;;;5035513;28;20021;-38
2023/11/08 00:13:03;;;;;;;3.13;2.20;;;23.90;99.90;;;;;;5035422;28;20105;-37
2023/11/08 00:15:29;;;;;;;3.72;2.67;;;23.90;99.90;;;;;;5035593;28;20470;-38
2023/11/08 00:17:54;;;;;;;4.22;2.60;;;23.80;99.90;;;;;;5035269;28;20037;-38
2023/11/08 00:20:20;;;;;;;3.83;2.60;;;23.90;99.90;;;;;;5034294;28;20428;-38
2023/11/08 00:22:46;;;;;;;5.60;2.65;;;23.80;99.90;;;;;;5035269;28;20041;-38
2023/11/08 00:25:12;;;;;;;4.18;3.00;;;23.80;99.90;;;;;;5035073;28;20055;-38
2023/11/08 00:27:38;;;;;;;3.88;2.38;;;23.80;99.90;;;;;;5035297;28;20104;-38
2023/11/08 00:30:07;;;;;;;4.85;3.05;;;23.80;99.90;;;;;;5035254;28;20026;-38
2023/11/08 00:32:33;;;;;;;3.67;2.55;;;23.80;99.90;;;;;;5035195;28;20022;-39
2023/11/08 00:34:58;;;;;;;3.72;2.72;;;23.80;99.90;;;;;;5035167;28;20032;-39
2023/11/08 00:37:25;;;;;;;3.45;2.63;;;23.70;99.90;;;;;;5035111;28;20540;-38
2023/11/08 00:39:51;;;;;;;3.83;2.80;;;23.80;99.90;;;;;;5034957;28;20025;-38
2023/11/08 00:42:17;;;;;;;5.00;2.90;;;23.70;99.90;;;;;;5033720;28;20079;-38
2023/11/08 00:44:43;;;;;;;4.40;2.92;;;23.70;99.90;;;;;;5034927;28;20022;-43
2023/11/08 00:47:08;;;;;;;3.00;2.28;;;23.70;99.90;;;;;;5034916;28;20025;-38
2023/11/08 00:49:35;;;;;;;3.40;2.53;;;23.70;99.90;;;;;;5034859;28;20037;-38
2023/11/08 00:52:01;;;;;;;3.50;2.30;;;23.70;99.90;;;;;;5034809;28;20038;-38
2023/11/08 00:54:27;;;;;;;5.32;2.95;;;23.70;99.90;;;;;;5033720;28;20599;-40
2023/11/08 00:56:53;;;;;;;4.82;2.65;;;23.70;99.90;;;;;;5034718;28;20037;-41
2023/11/08 00:59:19;;;;;;;4.68;2.53;;;23.60;99.90;;;;;;5034770;28;20397;-40
2023/11/08 01:01:45;;;;;;;3.67;2.40;;;23.70;99.90;;;;;;5035116;28;20430;-40
2023/11/08 01:04:11;;;;;;;3.83;2.85;;;23.60;99.90;;;;;;5034598;28;20053;-40
2023/11/08 01:06:41;;;;;;;4.38;3.00;;;23.60;99.90;;;;;;5034476;28;20026;-40
2023/11/08 01:09:08;;;;;;;4.65;2.72;;;23.60;99.90;;;;;;5034459;28;20018;-40
2023/11/08 01:11:35;;;;;;;3.88;2.38;;;23.60;99.90;;;;;;5033518;28;20021;-40
2023/11/08 01:14:02;;;;;;;3.47;2.65;;;23.60;99.90;;;;;;5034509;28;20112;-40
2023/11/08 01:16:28;;;;;;;3.85;2.47;;;23.60;99.90;;;;;;5033953;28;20041;-40
2023/11/08 01:18:54;;;;;;;4.15;2.63;;;23.60;99.90;;;;;;5034148;28;20021;-40
2023/11/08 01:21:21;;;;;;;4.53;3.05;;;23.60;99.90;;;;;;5034217;28;20109;-40
2023/11/08 01:23:47;;;;;;;3.38;2.40;;;23.60;99.90;;;;;;5034105;28;20104;-41
2023/11/08 01:26:12;;;;;;;4.38;2.90;;;23.50;99.90;;;;;;5034187;28;20100;-40
2023/11/08 01:28:39;;;;;;;3.55;2.42;;;23.50;99.90;;;;;;5033903;28;20489;-40
2023/11/08 01:31:05;;;;;;;4.32;3.15;;;23.50;99.90;;;;;;5033080;28;20057;-40
2023/11/08 01:33:31;;;;;;;4.55;2.92;;;23.50;99.90;;;;;;5033932;28;20052;-40
2023/11/08 01:35:56;;;;;;;3.03;2.35;;;23.50;99.90;;;;;;5033817;28;20573;-41
2023/11/08 01:38:22;;;;;;;3.33;2.53;;;23.50;99.90;;;;;;5034020;28;20097;-41
2023/11/08 01:40:49;;;;;;;4.25;2.85;;;23.50;99.90;;;;;;5033779;28;20108;-40
2023/11/08 01:43:27;;;;;;;5.43;3.28;;;23.40;99.90;;;;;;5033869;28;20014;-40
2023/11/08 01:46:05;;;;;;;5.50;3.10;;;23.40;99.90;;;;;;5033705;28;20018;-40
2023/11/08 01:48:32;;;;;;;6.20;2.95;;;23.40;99.90;;;;;;5032744;28;20041;-41
2023/11/08 01:50:58;;;;;;;6.10;3.40;;;23.40;99.90;;;;;;5033770;28;20029;-40
2023/11/08 01:53:27;;;;;;;3.38;2.50;;;23.40;99.90;;;;;;5033666;28;20113;-40
2023/11/08 01:55:55;;;;;;;5.55;2.97;;;23.40;99.90;;;;;;5033553;28;20045;-40
2023/11/08 01:58:21;;;;;;;4.88;2.95;;;23.40;99.90;;;;;;5032372;28;20060;-41
2023/11/08 02:00:51;;;;;;;4.22;3.10;;;23.40;99.90;;;;;;5038435;22;20050;-57
2023/11/08 02:03:17;;;;;;;4.30;2.88;;;23.40;99.90;;;;;;4981870;28;20031;-56
2023/11/08 02:05:46;;;;;;;3.85;2.85;;;23.30;99.90;;;;;;4977193;28;20214;-56
2023/11/08 02:08:13;;;;;;;4.68;3.20;;;23.30;99.90;;;;;;4993663;28;20026;-55
2023/11/08 02:10:39;;;;;;;4.32;3.22;;;23.30;99.90;;;;;;4993548;28;20019;-60
2023/11/08 02:13:05;;;;;;;4.35;2.85;;;23.30;99.90;;;;;;4993724;28;20018;-55
2023/11/08 02:15:42;;;;;;;3.33;2.55;;;23.30;99.90;;;;;;4992210;28;20033;-55
2023/11/08 02:18:08;;;;;;;5.47;3.45;;;23.30;99.90;;;;;;4993584;28;20026;-55
2023/11/08 02:20:34;;;;;;;4.35;2.72;;;23.30;99.90;;;;;;4993357;28;20368;-56
2023/11/08 02:23:00;;;;;;;3.95;2.78;;;23.30;99.90;;;;;;4993302;28;20023;-56
2023/11/08 02:25:26;;;;;;;3.42;2.55;;;23.30;99.90;;;;;;4992719;28;20026;-56
2023/11/08 02:27:52;;;;;;;5.43;3.40;;;23.30;99.90;;;;;;4990838;28;20031;-57
2023/11/08 02:30:18;;;;;;;4.40;2.75;;;23.30;99.90;;;;;;4991856;28;20025;-56
2023/11/08 02:32:44;;;;;;;3.20;2.63;;;23.20;99.90;;;;;;4992666;28;20105;-55
2023/11/08 02:35:10;;;;;;;4.50;3.40;;;23.30;99.90;;;;;;4993614;28;20497;-55
2023/11/08 02:37:35;;;;;;;6.00;3.20;;;23.20;99.90;;;;;;4993791;28;20022;-55
2023/11/08 02:40:03;;;;;;;4.18;3.13;;;23.20;99.90;;;;;;5008503;28;20494;-55
2023/11/08 02:42:29;;;;;;;4.75;2.90;;;23.20;99.90;;;;;;4993276;28;20030;-56
2023/11/08 02:44:55;;;;;;;4.20;2.92;;;23.20;99.90;;;;;;4993271;28;20545;-56
2023/11/08 02:47:21;;;;;;;4.93;2.50;;;23.10;99.90;;;;;;4993240;28;20038;-55
2023/11/08 02:49:49;;;;;;;3.80;2.40;;;23.20;99.90;;;;;;4993354;28;20031;-56
2023/11/08 02:52:15;;;;;;;4.88;3.08;;;23.10;99.90;;;;;;4993326;28;20061;-56
2023/11/08 02:54:41;;;;;;;3.13;2.70;;;23.10;99.90;;;;;;4993457;28;20448;-56
2023/11/08 02:57:07;;;;;;;3.97;2.95;;;23.10;99.90;;;;;;4993123;28;20505;-56
2023/11/08 02:59:36;;;;;;;3.55;2.72;;;23.10;99.90;;;;;;4993022;28;20050;-56
2023/11/08 03:02:03;;;;;;;4.53;3.22;;;23.10;99.90;;;;;;4993536;28;20046;-56
2023/11/08 03:04:31;;;;;;;4.88;3.08;;;23.10;99.90;;;;;;4993006;28;20081;-56
2023/11/08 03:06:57;;;;;;;3.75;2.83;;;23.10;99.90;;;;;;4993057;28;20026;-55
2023/11/08 03:09:23;;;;;;;3.28;2.90;;;23.10;99.90;;;;;;4991769;28;20022;-55
2023/11/08 03:11:49;;;;;;;3.83;2.90;;;23.00;99.90;;;;;;4992920;28;20053;-56
2023/11/08 03:14:15;;;;;;;4.97;2.67;;;23.00;99.90;;;;;;4992983;28;20471;-56
2023/11/08 03:16:41;;;;;;;3.40;2.60;;;23.00;99.90;;;;;;4993034;28;20054;-56
2023/11/08 03:19:10;;;;;;;3.47;2.60;;;23.10;99.90;;;;;;4992856;28;20023;-55
2023/11/08 03:21:37;;;;;;;2.95;2.25;;;23.00;99.90;;;;;;4992881;28;20399;-55
2023/11/08 03:24:04;;;;;;;3.33;2.45;;;23.00;99.90;;;;;;4992823;28;20490;-56
2023/11/08 03:26:30;;;;;;;5.68;2.92;;;23.00;99.90;;;;;;4992758;28;20030;-55
2023/11/08 03:28:56;;;;;;;4.30;2.70;;;23.00;99.90;;;;;;4991455;28;20030;-56
2023/11/08 03:31:22;;;;;;;3.88;2.40;;;23.00;99.90;;;;;;4992752;28;20031;-56
2023/11/08 03:33:48;;;;;;;3.15;2.30;;;23.00;99.90;;;;;;4992698;28;20022;-56
2023/11/08 03:36:13;;;;;;;4.22;2.58;;;23.00;99.90;;;;;;4992919;28;20125;-55
2023/11/08 03:38:39;;;;;;;3.53;2.38;;;23.00;99.90;;;;;;4994215;28;20061;-55
2023/11/08 03:41:05;;;;;;;4.05;2.45;;;22.90;99.90;;;;;;4996425;28;20088;-55
2023/11/08 03:43:31;;;;;;;3.10;2.30;;;22.90;99.90;;;;;;4996582;28;20030;-55
2023/11/08 03:45:57;;;;;;;3.58;2.65;;;22.90;99.90;;;;;;4996430;28;20106;-54
2023/11/08 03:48:23;;;;;;;5.03;2.50;;;22.90;99.90;;;;;;4996726;28;20038;-54
2023/11/08 03:50:49;;;;;;;3.42;2.50;;;22.90;99.90;;;;;;4996473;28;20069;-56
2023/11/08 03:53:14;;;;;;;3.88;2.20;;;22.90;99.90;;;;;;4996559;28;20030;-55
2023/11/08 03:55:41;;;;;;;3.42;2.38;;;22.90;99.90;;;;;;4996190;28;20034;-56
2023/11/08 03:58:07;;;;;;;6.55;2.30;;;22.90;99.90;;;;;;4996407;28;20026;-56
2023/11/08 04:00:33;;;;;;;5.78;1.88;;;22.90;99.90;;;;;;5008909;23;20387;-50
2023/11/08 04:02:59;;;;;;;3.83;2.10;;;22.90;99.90;;;;;;5026852;28;20026;-49
2023/11/08 04:05:29;;;;;;;3.90;1.92;;;22.80;99.90;;;;;;5015233;28;20034;-49
2023/11/08 04:07:56;;;;;;;4.40;2.10;;;22.80;99.90;;;;;;5014967;28;20037;-49
2023/11/08 04:10:22;;;;;;;4.45;2.13;;;22.80;99.90;;;;;;5015524;28;20030;-49
2023/11/08 04:12:48;;;;;;;4.15;2.20;;;22.80;99.90;;;;;;5015780;28;20021;-49
2023/11/08 04:15:14;;;;;;;4.05;2.58;;;22.80;99.90;;;;;;5015887;28;20426;-49
2023/11/08 04:17:40;;;;;;;3.60;2.20;;;22.80;99.90;;;;;;5015606;28;20029;-49
2023/11/08 04:20:12;;;;;;;5.47;2.42;;;22.80;99.90;;;;;;5032703;28;20033;-49
2023/11/08 04:22:43;;;;;;;5.93;2.10;;;22.80;99.90;;;;;;5035278;28;20026;-49
2023/11/08 04:25:11;;;;;;;3.05;2.45;;;22.70;99.90;;;;;;5035293;28;20037;-49
2023/11/08 04:27:38;;;;;;;5.80;2.35;;;22.70;99.90;;;;;;5035214;28;20029;-50
2023/11/08 04:30:04;;;;;;;8.13;2.45;;;22.70;99.90;;;;;;5035167;28;20068;-49
2023/11/08 04:32:30;;;;;;;4.03;1.92;;;22.70;99.90;;;;;;5029923;28;20037;-49
2023/11/08 04:34:56;;;;;;;2.83;1.77;;;22.70;99.90;;;;;;5015178;28;20025;-49
2023/11/08 04:37:22;;;;;;;3.30;2.30;;;22.70;99.90;;;;;;5015229;28;20524;-49
2023/11/08 04:39:50;;;;;;;3.28;1.80;;;22.70;99.90;;;;;;5015408;28;20034;-50
2023/11/08 04:42:16;;;;;;;4.68;1.90;;;22.70;99.90;;;;;;5014006;28;20427;-49
2023/11/08 04:44:48;;;;;;;2.95;1.90;;;22.70;99.90;;;;;;5013796;28;20026;-49
2023/11/08 04:47:18;;;;;;;6.18;2.25;;;22.70;99.90;;;;;;5015456;28;20030;-49
2023/11/08 04:49:48;;;;;;;2.53;1.50;;;22.70;99.90;;;;;;5014439;28;20018;-49
2023/11/08 04:52:18;;;;;;;4.28;2.00;;;22.70;99.90;;;;;;5015168;28;20033;-49
2023/11/08 04:54:47;;;;;;;4.15;1.90;;;22.60;99.90;;;;;;5014920;28;20026;-49
2023/11/08 04:57:17;;;;;;;3.30;2.00;;;22.60;99.90;;;;;;5014905;28;20371;-49
2023/11/08 04:59:47;;;;;;;3.25;1.67;;;22.70;99.90;;;;;;5015961;28;20487;-49
2023/11/08 05:02:15;;;;;;;4.40;1.80;;;22.60;99.90;;;;;;5015122;28;20379;-49
2023/11/08 05:04:42;;;;;;;5.75;2.10;;;22.60;99.90;;;;;;5014679;28;20056;-50
2023/11/08 05:07:08;;;;;;;3.50;1.88;;;22.60;99.90;;;;;;5013382;28;20050;-50
2023/11/08 05:09:41;;;;;;;2.63;1.73;;;22.60;99.90;;;;;;5014516;28;20386;-49
2023/11/08 05:12:07;;;;;;;3.13;1.83;;;22.60;99.90;;;;;;5015465;28;20111;-49
2023/11/08 05:14:33;;;;;;;3.80;2.05;;;22.60;99.90;;;;;;5014441;28;20054;-49
2023/11/08 05:17:05;;;;;;;2.53;1.92;;;22.60;99.90;;;;;;5014358;28;20128;-49
2023/11/08 05:19:31;;;;;;;3.72;1.92;;;22.50;99.90;;;;;;5014408;28;20064;-50
2023/11/08 05:21:57;;;;;;;3.75;2.15;;;22.60;99.90;;;;;;5014291;28;20045;-49
2023/11/08 05:24:23;;;;;;;3.13;1.42;;;22.50;99.90;;;;;;5014096;28;20022;-50
2023/11/08 05:26:50;;;;;;;2.78;2.00;;;22.50;99.90;;;;;;5014487;28;20018;-49
2023/11/08 05:29:18;;;;;;;3.67;1.63;;;22.60;99.90;;;;;;5014117;28;20060;-50
2023/11/08 05:31:44;;;;;;;3.80;1.77;;;22.50;99.90;;;;;;5014013;28;20029;-51
2023/11/08 05:34:10;;;;;;;3.58;1.70;;;22.50;99.90;;;;;;5012870;28;20463;-49
2023/11/08 05:36:36;;;;;;;1.88;1.30;;;22.50;99.90;;;;;;5013865;28;20033;-49
2023/11/08 05:39:06;;;;;;;4.97;2.03;;;22.50;99.90;;;;;;5014180;28;20482;-50
2023/11/08 05:41:32;;;;;;;5.47;2.13;;;22.50;99.90;;;;;;5013972;28;20022;-50
2023/11/08 05:43:58;;;;;;;2.10;1.70;;;22.50;99.90;;;;;;5013941;28;20030;-49
2023/11/08 05:46:25;;;;;;;3.20;1.90;;;22.50;99.90;;;;;;5013933;28;20022;-49
2023/11/08 05:48:51;;;;;;;3.72;1.67;;;22.50;99.90;;;;;;5014105;28;20033;-50
2023/11/08 05:51:17;;;;;;;3.72;2.10;;;22.50;99.90;;;;;;5012592;28;20026;-49
2023/11/08 05:53:42;;;;;;;2.08;1.50;;;22.50;99.90;;;;;;5013673;28;20479;-49
2023/11/08 05:56:08;;;;;;;2.60;1.40;;;22.40;99.90;;;;;;5013675;28;20033;-49
2023/11/08 05:58:37;;;;;;;3.78;1.98;;;22.40;99.90;;;;;;5013682;28;20145;-50
2023/11/08 06:01:04;;;;;;;4.68;1.95;;;22.40;99.90;;;;;;5019100;28;20086;-49
2023/11/08 06:03:30;;;;;;;4.68;1.45;;;22.40;99.90;;;;;;5024080;28;20030;-49
2023/11/08 06:05:56;;;;;;;2.45;1.50;;;22.40;99.90;;;;;;5013688;28;20026;-49
2023/11/08 06:08:22;;;;;;;3.75;1.48;;;22.40;99.90;;;;;;5012412;28;20045;-49
2023/11/08 06:10:51;;;;;;;4.03;1.92;;;22.40;99.90;;;;;;5011352;28;20113;-49
2023/11/08 06:13:16;;;;;;;4.43;2.03;;;22.40;99.90;;;;;;5033122;28;20469;-49
2023/11/08 06:15:42;;;;;;;3.58;1.70;;;22.40;99.90;;;;;;5033106;28;20048;-49
2023/11/08 06:18:09;;;;;;;3.03;1.83;;;22.40;99.90;;;;;;5033186;28;20021;-50
2023/11/08 06:20:35;;;;;;;4.07;2.03;;;22.40;99.90;;;;;;5022502;28;20030;-49
2023/11/08 06:23:02;;;;;;;4.30;1.70;;;22.40;99.90;;;;;;5014258;28;20064;-49
2023/11/08 06:25:30;;;;;;;3.83;1.90;;;22.30;99.90;;;;;;5013210;28;20105;-50
2023/11/08 06:27:55;;;;;;;4.30;2.15;;;22.30;99.90;;;;;;5011833;28;20426;-49
2023/11/08 06:30:21;;;;;;;5.35;2.20;;;22.40;99.90;;;;;;5013408;28;20034;-50
2023/11/08 06:32:47;;;;;;;5.88;2.30;;;22.30;99.90;;;;;;5013124;28;20557;-50
2023/11/08 06:35:13;;;;;;;6.47;2.88;;;22.30;99.90;;;;;;5013038;28;20386;-50
2023/11/08 06:37:39;;;;;;;2.83;1.80;;;22.30;99.90;;;;;;5012929;28;20106;-49
2023/11/08 06:40:07;;;;;;;3.55;2.08;;;22.30;99.90;;;;;;5012855;28;20429;-49
2023/11/08 06:42:33;;;;;;;;;;;22.30;99.90;;;;;;5013071;28;20037;-49
2023/11/08 06:44:59;;;;;;;3.38;2.28;;;22.30;99.90;;;;;;5012878;28;19906;-49
2023/11/08 06:47:26;;;;;;;6.75;2.97;;;22.30;99.90;;;;;;5012792;28;20451;-49
2023/11/08 06:49:52;;;;;;;3.97;2.33;;;22.30;99.90;;;;;;5012832;28;20056;-49
2023/11/08 06:52:17;;;;;;;7.20;3.72;;;22.30;99.90;;;;;;5012469;28;20057;-49
2023/11/08 06:54:43;;;;;;;4.05;2.20;;;22.30;99.90;;;;;;5012496;28;20029;-49
2023/11/08 06:57:09;;;;;;;7.63;3.03;;;22.30;99.90;;;;;;5011180;28;20383;-49
2023/11/08 06:59:36;;;;;;;5.82;2.75;;;22.30;99.90;;;;;;5012508;28;20470;-49
2023/11/08 07:02:03;;;;;;;5.38;2.90;;;22.20;99.90;;;;;;5012398;28;20453;-49
2023/11/08 07:04:29;;;;;;;7.78;2.70;;;22.20;99.90;;;;;;5012390;28;20050;-49
2023/11/08 07:06:54;;;;;;;4.72;2.83;;;22.30;99.90;;;;;;5012608;28;20060;-49
2023/11/08 07:09:21;;;;;;;4.55;2.45;;;22.30;99.90;;;;;;5012235;28;20030;-49
2023/11/08 07:11:48;;;;;;;4.72;2.58;;;22.30;99.90;;;;;;5012224;28;20030;-49
2023/11/08 07:14:14;;;;;;;8.38;3.08;;;22.30;99.90;;;;;;5011936;28;20025;-49
2023/11/08 07:16:39;;;;;;;4.25;2.78;;;22.30;99.90;;;;;;5010839;28;20111;-49
2023/11/08 07:19:05;;;;;;;5.68;3.15;;;22.30;99.90;;;;;;5012324;28;20032;-49
2023/11/08 07:21:31;;;;;;;6.03;2.80;;;22.40;99.90;;;;;;5012538;28;20080;-49
2023/11/08 07:23:57;;;;;;;3.30;2.53;;;22.40;99.90;;;;;;5019540;28;20473;-50
2023/11/08 07:26:23;;;;;;;4.38;2.40;;;22.40;99.90;;;;;;5032072;28;20378;-49
2023/11/08 07:28:49;;;;;;;4.88;2.60;;;22.40;99.90;;;;;;5032016;28;20052;-48
2023/11/08 07:31:15;;;;;;;5.60;2.45;;;22.40;99.90;;;;;;5031967;28;20068;-49
2023/11/08 07:33:42;;;;;;;6.10;2.30;;;22.50;99.90;;;;;;5032062;28;20029;-49
2023/11/08 07:36:08;;;;;;;5.35;2.83;;;22.50;99.90;;;;;;5024548;28;20041;-49
2023/11/08 07:38:34;;;;;;;4.45;3.10;;;22.50;99.90;;;;;;5012245;28;20022;-49
2023/11/08 07:41:01;;;;;;;7.63;2.85;;;22.60;99.90;;;;;;5012308;28;20507;-49
2023/11/08 07:43:28;;;;;;;4.68;2.85;;;22.60;99.90;;;;;;5012395;28;20033;-49
2023/11/08 07:45:54;;;;;;;9.47;3.40;;;22.70;99.90;;;;;;5012072;28;20020;-49
2023/11/08 07:48:19;;;;;;;5.70;3.33;;;22.70;99.90;;;;;;5012280;28;20037;-49
2023/11/08 07:50:45;;;;;;;6.82;2.92;;;22.70;99.90;;;;;;5012183;28;20076;-49
2023/11/08 07:53:11;;;;;;;6.38;2.80;;;22.70;99.90;;;;;;5012145;28;20482;-49
2023/11/08 07:55:37;;;;;;;5.50;2.83;;;22.80;99.90;;;;;;5011990;28;20038;-49
2023/11/08 07:58:02;;;;;;;4.97;3.22;;;22.80;99.90;;;;;;5012153;28;20024;-50
2023/11/08 08:00:31;;;;;;;6.50;3.10;;;22.80;99.90;;;;;;5012342;28;20101;-49
2023/11/08 08:02:57;;;;;;;6.50;2.75;;;22.90;99.90;;;;;;5012172;28;20141;-49
2023/11/08 08:05:23;;;;;;;6.05;2.50;;;22.90;99.90;;;;;;5011966;28;20062;-49
2023/11/08 08:07:52;;;;;;;6.85;3.47;;;22.90;99.90;;;;;;5011995;28;20026;-49
2023/11/08 08:10:18;;;;;;;8.82;3.20;;;22.90;99.90;;;;;;5015766;28;20022;-49
2023/11/08 08:12:44;;;;;;;4.43;2.92;;;23.00;99.90;;;;;;5010706;28;20034;-50
2023/11/08 08:15:10;;;;;;;7.07;2.63;;;23.00;99.90;;;;;;5010661;28;20030;-49
2023/11/08 08:17:35;;;;;;;9.52;2.80;;;23.00;99.90;;;;;;5011915;28;20547;-50
2023/11/08 08:20:04;;;;;;;5.88;2.83;;;23.00;99.90;;;;;;5011914;28;20092;-50
2023/11/08 08:22:31;;;;;;;5.40;3.17;;;23.00;99.90;;;;;;5012215;28;20018;-49
2023/11/08 08:24:59;;;;;;;7.53;2.53;;;23.00;99.90;;;;;;5012269;28;20026;-49
2023/11/08 08:27:25;;;;;;;5.28;2.63;;;23.10;99.90;;;;;;5015433;28;20101;-49
2023/11/08 08:29:51;;;;;;;5.18;2.50;;;23.10;99.90;;;;;;5016431;28;20111;-50
2023/11/08 08:32:17;;;;;;;3.83;2.38;;;23.10;99.90;;;;;;5033925;28;20085;-49
2023/11/08 08:34:44;;;;;;;6.63;3.10;;;23.10;99.90;;;;;;5034318;28;20132;-49
2023/11/08 08:37:10;;;;;;;4.93;2.50;;;23.10;99.90;;;;;;5035056;28;20068;-49
2023/11/08 08:39:36;;;;;;;4.05;2.60;;;23.20;99.90;;;;;;5034958;28;20123;-49
2023/11/08 08:42:05;;;;;;;3.63;2.40;;;23.20;99.90;;;;;;5035045;28;20506;-49
2023/11/08 08:44:34;;;;;;;4.25;2.65;;;23.20;99.90;;;;;;5033832;28;20457;-48
2023/11/08 08:47:00;;;;;;;5.13;2.67;;;23.20;99.90;;;;;;5034944;28;20486;-49
2023/11/08 08:49:25;;;;;;;7.03;2.25;;;23.20;99.90;;;;;;5034833;28;20126;-49
2023/11/08 08:51:51;;;;;;;4.10;2.50;;;23.20;99.90;;;;;;5034333;28;20104;-49
2023/11/08 08:54:20;;;;;;;5.63;3.00;;;23.30;99.90;;;;;;5034399;28;20473;-49
2023/11/08 08:56:49;;;;;;;5.60;2.70;;;23.30;99.90;;;;;;5032334;28;20080;-49
2023/11/08 08:59:15;;;;;;;4.57;2.95;;;23.30;99.90;;;;;;5033395;28;20025;-49
2023/11/08 09:01:42;;;;;;;4.70;2.70;;;23.30;99.90;;;;;;5032772;28;20099;-49
2023/11/08 09:04:08;;;;;;;5.75;2.80;;;23.30;99.90;;;;;;5034197;28;20481;-49
2023/11/08 09:06:34;;;;;;;4.57;2.20;;;23.30;99.90;;;;;;5034404;28;20018;-49
2023/11/08 09:09:01;;;;;;;5.70;2.28;;;23.30;99.90;;;;;;5033910;28;20070;-49
2023/11/08 09:11:26;;;;;;;3.85;2.33;;;23.40;99.90;;;;;;5034121;28;20037;-49
2023/11/08 09:13:53;;;;;;;3.65;2.17;;;23.30;99.90;;;;;;5034096;28;20098;-49
2023/11/08 09:16:20;;;;;;;5.13;2.57;;;23.40;99.90;;;;;;5033718;28;20095;-49
2023/11/08 09:18:46;;;;;;;6.00;2.97;;;23.40;99.90;;;;;;5033952;28;20267;-49
2023/11/08 09:21:12;;;;;;;6.95;2.75;;;23.40;99.90;;;;;;5033966;28;20032;-49
2023/11/08 09:23:40;;;;;;;3.85;2.28;;;23.40;99.90;;;;;;5034013;28;20391;-49
2023/11/08 09:26:07;;;;;;;4.32;2.38;;;23.40;99.90;;;;;;5034051;28;20417;-49
2023/11/08 09:28:33;;;;;;;7.78;2.25;;;23.40;99.90;;;;;;5016150;28;20037;-49
2023/11/08 09:30:59;;;;;;;3.97;2.78;;;23.40;99.90;;;;;;5033671;28;20032;-49
2023/11/08 09:33:27;;;;;;;4.60;2.97;;;23.40;99.90;;;;;;5033935;28;20525;-49
2023/11/08 09:35:53;;;;;;;6.82;3.10;;;23.40;99.90;;;;;;5032240;28;20506;-49
2023/11/08 09:38:18;;;;;;;5.75;2.42;;;23.40;99.90;;;;;;5033447;28;20037;-49
2023/11/08 09:40:44;;;;;;;6.22;2.00;;;23.40;99.90;;;;;;5034067;28;20036;-49
2023/11/08 09:43:10;;;;;;;6.57;3.20;;;23.40;99.90;;;;;;5034256;28;20104;-49
2023/11/08 09:45:38;;;;;;;5.05;2.60;;;23.40;99.90;;;;;;5033704;28;20109;-49
2023/11/08 09:48:05;;;;;;;5.72;2.45;;;23.40;99.90;;;;;;5033588;28;20441;-49
2023/11/08 09:50:32;;;;;;;6.55;2.50;;;23.50;99.90;;;;;;5033462;28;20018;-49
2023/11/08 09:52:58;;;;;;;4.30;2.90;;;23.50;99.90;;;;;;5033537;28;20425;-49
2023/11/08 09:55:23;;;;;;;4.78;2.10;;;23.50;99.90;;;;;;5033479;28;20076;-49
2023/11/08 09:57:53;;;;;;;5.60;2.55;;;23.60;99.90;;;;;;5033247;28;20381;-49
2023/11/08 10:00:20;;;;;;;5.78;2.80;;;23.60;99.90;;;;;;5032176;28;20025;-50
2023/11/08 10:02:46;;;;;;;3.78;2.55;;;23.60;99.90;;;;;;5031191;28;20055;-50
2023/11/08 10:05:13;;;;;;;6.30;2.30;;;23.70;99.90;;;;;;5033215;28;20022;-50
2023/11/08 10:07:41;;;;;;;4.55;2.67;;;23.80;99.90;;;;;;5033264;28;20028;-49
2023/11/08 10:10:06;;;;;;;;;;;23.90;99.90;;;;;;5033868;28;20018;-50
2023/11/08 10:12:33;;;;;;;5.15;2.30;;;23.90;99.90;;;;;;5032918;28;19950;-50
2023/11/08 10:15:06;;;;;;;6.13;2.17;;;24.00;99.90;;;;;;5033053;28;20517;-50
2023/11/08 10:17:40;;;;;;;5.25;2.50;;;24.10;99.90;;;;;;5031863;28;20029;-50
2023/11/08 10:20:11;;;;;;;3.17;2.33;;;24.10;99.90;;;;;;5032972;28;20036;-50
2023/11/08 10:22:37;;;;;;;9.63;2.30;;;24.20;99.90;;;;;;5031409;28;20021;-49
2023/11/08 10:25:05;;;;;;;4.60;2.20;;;24.30;99.90;;;;;;5032735;28;20504;-50
2023/11/08 10:27:32;;;;;;;5.47;2.45;;;24.30;99.90;;;;;;5032934;28;20029;-50
2023/11/08 10:30:21;;;;;;;;;;;24.40;99.90;;;;;;5033280;28;20377;-50
2023/11/08 10:32:47;;;;;;;2.88;2.00;;;24.40;99.90;;;;;;5032778;28;19951;-50
2023/11/08 10:35:21;;;;;;;5.55;2.65;;;24.50;99.90;;;;;;5032671;28;20037;-50
2023/11/08 10:37:48;;;;;;;5.10;2.55;;;24.50;99.90;;;;;;5032661;28;20022;-50
2023/11/08 10:40:14;;;;;;;;;;;24.60;99.90;;;;;;5032725;28;20112;-50
2023/11/08 10:42:48;;;;;;;4.95;2.58;;;24.60;99.90;;;;;;5032638;28;19944;-50
2023/11/08 10:45:14;;;;;;;5.15;2.30;;;24.70;99.90;;;;;;5032525;28;20033;-50
2023/11/08 10:47:40;;;;;;;6.72;2.20;;;24.70;99.90;;;;;;5031039;28;20025;-50
2023/11/08 10:50:11;;;;;;;4.45;2.45;;;24.70;99.90;;;;;;5032612;28;20029;-50
2023/11/08 10:52:42;;;;;;;5.97;2.47;;;24.70;99.90;;;;;;5032685;28;20079;-50
2023/11/08 10:55:09;;;;;;;4.60;2.40;;;24.80;99.90;;;;;;5032575;28;20019;-50
2023/11/08 10:57:36;;;;;;;6.13;2.42;;;24.80;99.90;;;;;;5032299;28;20029;-50
2023/11/08 11:00:07;;;;;;;4.22;2.40;;;24.90;99.90;;;;;;5031928;28;20030;-50
2023/11/08 11:02:36;;;;;;;5.22;2.08;;;24.90;99.90;;;;;;5032072;28;20129;-50
2023/11/08 11:05:08;;;;;;;4.70;2.58;;;25.00;99.90;;;;;;5030874;28;20032;-50
2023/11/08 11:07:39;;;;;;;7.72;2.70;;;25.00;99.90;;;;;;5032227;28;20029;-50
2023/11/08 11:10:10;;;;;;;3.05;2.33;;;25.00;99.90;;;;;;5030866;28;20029;-50
2023/11/08 11:12:56;;;;;;;4.63;2.85;;;25.00;99.90;;;;;;5032036;28;20104;-50
2023/11/08 11:15:53;;;;;;;4.72;2.17;;;25.10;99.90;;;;;;5031974;28;20462;-50
2023/11/08 11:18:26;;;;;;;3.45;2.17;;;25.10;99.90;;;;;;5031973;28;20053;-49
2023/11/08 11:21:04;;;;;;;5.70;2.35;;;25.10;99.90;;;;;;5022517;28;20034;-50
2023/11/08 11:23:31;;;;;;;3.17;2.28;;;25.10;99.90;;;;;;5010807;28;20021;-50
2023/11/08 11:25:57;;;;;;;5.20;2.78;;;25.10;99.90;;;;;;5012218;28;20367;-49
2023/11/08 11:28:55;;;;;;;3.92;2.65;;;25.10;99.90;;;;;;5012203;28;20026;-50
2023/11/08 11:31:38;;;;;;;4.63;2.72;;;25.20;99.90;;;;;;5012403;28;20022;-50
2023/11/08 11:34:26;;;;;;;3.10;2.55;;;25.20;99.90;;;;;;5012215;28;20029;-49
2023/11/08 11:37:10;;;;;;;5.03;2.50;;;25.20;99.90;;;;;;5012164;28;20424;-50
2023/11/08 11:39:44;;;;;;;3.20;2.22;;;25.20;99.90;;;;;;5012272;28;20022;-49
2023/11/08 11:42:17;;;;;;;4.30;2.05;;;25.30;99.90;;;;;;5012213;28;20386;-49
2023/11/08 11:44:49;;;;;;;5.90;3.20;;;25.30;99.90;;;;;;5029041;28;20083;-49
2023/11/08 11:47:27;;;;;;;4.88;2.80;;;25.30;99.90;;;;;;5014835;28;20057;-50
2023/11/08 11:50:00;;;;;;;3.90;2.70;;;25.30;99.90;;;;;;5013610;28;20022;-49
2023/11/08 11:52:28;;;;;;;6.47;3.40;;;25.40;99.90;;;;;;5012262;28;20037;-48
2023/11/08 11:54:57;;;;;;;3.88;2.45;;;25.40;99.90;;;;;;5012192;28;20499;-49
2023/11/08 11:57:24;;;;;;;3.50;2.40;;;25.50;99.90;;;;;;5011995;28;20474;-50
2023/11/08 11:59:51;;;;;;;;;;;25.40;99.90;;;;;;5012832;28;20026;-50
2023/11/08 12:02:18;;;;;;;7.30;3.08;;;25.50;99.90;;;;;;5015766;28;20015;-50
2023/11/08 12:04:45;;;;;;;4.75;3.03;;;25.50;99.90;;;;;;5016099;28;20025;-49
2023/11/08 12:07:14;;;;;;;4.10;2.60;;;25.50;99.90;;;;;;5015977;28;20101;-49
2023/11/08 12:09:41;;;;;;;4.70;3.00;;;25.50;99.90;;;;;;5015716;28;20038;-49
2023/11/08 12:12:08;;;;;;;4.43;3.22;;;25.60;99.90;;;;;;5015536;28;20029;-49
2023/11/08 12:14:36;;;;;;;4.13;2.95;;;25.60;99.90;;;;;;5029293;28;20087;-49
2023/11/08 12:17:07;;;;;;;4.60;2.95;;;25.60;99.90;;;;;;5035228;28;20139;-49
2023/11/08 12:19:34;;;;;;;5.40;2.72;;;25.60;99.90;;;;;;5035116;28;20013;-50
2023/11/08 12:22:00;;;;;;;4.00;2.65;;;25.70;99.90;;;;;;5035231;28;20029;-49
2023/11/08 12:24:33;;;;;;;5.47;2.75;;;25.70;99.90;;;;;;5033702;28;20025;-49
2023/11/08 12:27:03;;;;;;;5.07;3.10;;;25.70;99.90;;;;;;5035106;28;20057;-49
2023/11/08 12:29:29;;;;;;;5.45;3.08;;;25.70;99.90;;;;;;5034880;28;20496;-49
2023/11/08 12:31:55;;;;;;;5.67;3.17;;;25.80;99.90;;;;;;5035039;28;20029;-49
2023/11/08 12:34:21;;;;;;;5.72;2.80;;;25.80;99.90;;;;;;5028871;28;20287;-49
2023/11/08 12:36:48;;;;;;;5.28;3.33;;;25.80;99.90;;;;;;5034476;28;20107;-49
2023/11/08 12:39:22;;;;;;;6.13;3.53;;;25.80;99.90;;;;;;5035198;28;20474;-50
2023/11/08 12:41:50;;;;;;;7.78;3.30;;;25.80;99.90;;;;;;5034963;28;20022;-49
2023/11/08 12:44:19;;;;;;;;;;;25.90;99.90;;;;;;5034876;28;20013;-50
2023/11/08 12:47:06;;;;;;;4.68;3.25;;;25.90;99.90;;;;;;5034812;28;20016;-49
2023/11/08 12:49:33;;;;;;;9.27;3.75;;;25.90;99.90;;;;;;5034683;28;20022;-50